createdAt,value
2019-03-29T00:02:11.128Z,98372.49
2019-03-29T00:04:40.779Z,98369.86
2019-03-29T00:07:10.454Z,98369.16
2019-03-29T00:09:41.176Z,98367.52
2019-03-29T00:12:10.807Z,98368.20
2019-03-29T00:14:41.333Z,98374.67
2019-03-29T00:17:11.727Z,98368.03
2019-03-29T00:19:41.369Z,98366.05
2019-03-29T00:22:11.014Z,98371.83
2019-03-29T00:24:41.127Z,98370.21
2019-03-29T00:27:10.788Z,98375.16
2019-03-29T00:29:40.424Z,98374.52
2019-03-29T00:32:10.068Z,98374.84
2019-03-29T00:34:39.750Z,98375.87
2019-03-29T00:37:09.392Z,98374.89
2019-03-29T00:39:39.042Z,98369.11
2019-03-29T00:42:09.550Z,98371.89
2019-03-29T00:44:39.229Z,98375.89
2019-03-29T00:47:08.882Z,98378.20
2019-03-29T00:49:38.521Z,98378.85
2019-03-29T00:52:08.216Z,98375.58
2019-03-29T00:54:37.962Z,98377.90
2019-03-29T00:57:07.589Z,98372.92
2019-03-29T00:59:37.245Z,98371.78
2019-03-29T01:02:06.910Z,98373.28
2019-03-29T01:04:36.549Z,98375.27
2019-03-29T01:07:06.180Z,98367.30
2019-03-29T01:09:35.859Z,98369.80
2019-03-29T01:12:06.270Z,98363.98
2019-03-29T01:14:36.534Z,98360.36
2019-03-29T01:17:06.159Z,98356.05
2019-03-29T01:19:35.780Z,98359.02
2019-03-29T01:22:05.977Z,98361.35
2019-03-29T01:24:35.613Z,98351.77
2019-03-29T01:27:05.284Z,98355.06
2019-03-29T01:29:34.902Z,98352.73
2019-03-29T01:32:04.906Z,98351.08
2019-03-29T01:34:34.540Z,98355.06
2019-03-29T01:37:04.188Z,98352.91
2019-03-29T01:39:33.804Z,98352.93
2019-03-29T01:42:03.460Z,98349.09
2019-03-29T01:44:33.094Z,98343.98
2019-03-29T01:47:03.895Z,98344.48
2019-03-29T01:49:33.602Z,98338.86
2019-03-29T01:52:03.257Z,98343.47
2019-03-29T01:54:32.957Z,98340.33
2019-03-29T01:57:02.659Z,98338.47
2019-03-29T01:59:32.307Z,98338.06
2019-03-29T02:02:02.075Z,98335.62
2019-03-29T02:04:31.666Z,98334.47
2019-03-29T02:07:01.403Z,98327.92
2019-03-29T02:09:31.046Z,98328.25
2019-03-29T02:12:00.878Z,98323.73
2019-03-29T02:14:30.612Z,98322.06
2019-03-29T02:17:00.230Z,98322.42
2019-03-29T02:19:29.860Z,98319.97
2019-03-29T02:21:59.516Z,98317.95
2019-03-29T02:24:29.175Z,98317.58
2019-03-29T02:26:58.835Z,98315.65
2019-03-29T02:29:28.476Z,98319.11
2019-03-29T02:31:58.179Z,98316.16
2019-03-29T02:34:27.815Z,98312.09
2019-03-29T02:36:57.451Z,98310.25
2019-03-29T02:39:27.391Z,98304.39
2019-03-29T02:41:57.012Z,98303.19
2019-03-29T02:44:26.737Z,98310.05
2019-03-29T02:46:56.370Z,98300.31
2019-03-29T02:49:26.043Z,98307.59
2019-03-29T02:51:55.693Z,98311.25
2019-03-29T02:54:25.424Z,98304.63
2019-03-29T02:56:55.046Z,98307.70
2019-03-29T02:59:24.796Z,98305.75
2019-03-29T03:01:54.442Z,98302.02
2019-03-29T03:04:24.103Z,98306.25
2019-03-29T03:06:53.769Z,98302.14
2019-03-29T03:09:23.492Z,98300.28
2019-03-29T03:11:53.115Z,98297.91
2019-03-29T03:14:22.782Z,98293.84
2019-03-29T03:16:52.589Z,98290.73
2019-03-29T03:19:22.250Z,98291.36
2019-03-29T03:21:51.900Z,98289.75
2019-03-29T03:24:21.579Z,98279.22
2019-03-29T03:26:51.207Z,98279.64
2019-03-29T03:29:20.916Z,98272.42
2019-03-29T03:31:50.635Z,98272.83
2019-03-29T03:34:20.236Z,98282.70
2019-03-29T03:36:49.943Z,98275.56
2019-03-29T03:39:31.729Z,98281.05
2019-03-29T03:41:51.531Z,98276.64
2019-03-29T03:44:21.191Z,98281.60
2019-03-29T03:46:50.844Z,98279.98
2019-03-29T03:49:21.799Z,98279.39
2019-03-29T03:51:51.465Z,98271.21
2019-03-29T03:54:21.124Z,98269.57
2019-03-29T03:56:53.862Z,98269.48
2019-03-29T03:59:26.764Z,98267.82
2019-03-29T04:01:56.427Z,98259.75
2019-03-29T04:04:26.063Z,98258.70
2019-03-29T04:06:55.874Z,98255.75
2019-03-29T04:09:26.595Z,98254.20
2019-03-29T04:11:56.340Z,98252.53
2019-03-29T04:14:26.038Z,98252.42
2019-03-29T04:16:55.698Z,98254.16
2019-03-29T04:19:25.386Z,98252.38
2019-03-29T04:21:55.081Z,98249.06
2019-03-29T04:24:24.731Z,98250.75
2019-03-29T04:26:54.568Z,98254.38
2019-03-29T04:29:24.208Z,98250.16
2019-03-29T04:31:53.887Z,98251.34
2019-03-29T04:34:23.509Z,98254.05
2019-03-29T04:36:53.185Z,98252.91
2019-03-29T04:39:22.828Z,98256.53
2019-03-29T04:41:52.493Z,98247.30
2019-03-29T04:44:22.128Z,98252.95
2019-03-29T04:46:51.775Z,98255.48
2019-03-29T04:49:21.566Z,98259.58
2019-03-29T04:51:51.228Z,98257.70
2019-03-29T04:54:20.930Z,98250.61
2019-03-29T04:56:50.597Z,98260.98
2019-03-29T04:59:20.249Z,98261.79
2019-03-29T05:01:49.911Z,98259.30
2019-03-29T05:04:19.563Z,98258.38
2019-03-29T05:06:49.238Z,98259.85
2019-03-29T05:09:18.868Z,98247.02
2019-03-29T05:11:48.522Z,98250.15
2019-03-29T05:14:18.239Z,98245.69
2019-03-29T05:16:47.896Z,98247.42
2019-03-29T05:19:17.535Z,98254.05
2019-03-29T05:21:47.230Z,98250.34
2019-03-29T05:24:16.867Z,98251.23
2019-03-29T05:26:46.565Z,98248.30
2019-03-29T05:29:16.234Z,98248.77
2019-03-29T05:31:45.888Z,98247.70
2019-03-29T05:34:15.525Z,98246.72
2019-03-29T05:36:45.187Z,98239.66
2019-03-29T05:39:14.918Z,98237.12
2019-03-29T05:41:44.556Z,98235.54
2019-03-29T05:44:14.224Z,98241.18
2019-03-29T05:46:43.952Z,98237.00
2019-03-29T05:49:13.582Z,98239.84
2019-03-29T05:51:43.223Z,98241.92
2019-03-29T05:54:12.905Z,98236.18
2019-03-29T05:56:42.542Z,98239.63
2019-03-29T05:59:12.213Z,98238.80
2019-03-29T06:01:41.865Z,98241.94
2019-03-29T06:04:11.522Z,98241.42
2019-03-29T06:06:41.160Z,98248.33
2019-03-29T06:09:10.808Z,98241.48
2019-03-29T06:11:40.464Z,98245.52
2019-03-29T06:14:10.141Z,98248.08
2019-03-29T06:16:39.817Z,98246.58
2019-03-29T06:19:09.444Z,98247.77
2019-03-29T06:21:39.095Z,98242.42
2019-03-29T06:24:08.788Z,98247.85
2019-03-29T06:26:38.484Z,98236.86
2019-03-29T06:29:08.144Z,98227.61
2019-03-29T06:31:37.814Z,98232.75
2019-03-29T06:34:07.591Z,98230.21
2019-03-29T06:36:37.558Z,98225.45
2019-03-29T06:39:09.862Z,98228.89
2019-03-29T06:41:39.616Z,98229.83
2019-03-29T06:44:09.263Z,98225.91
2019-03-29T06:46:40.291Z,98228.97
2019-03-29T06:49:09.947Z,98230.45
2019-03-29T06:51:39.599Z,98235.02
2019-03-29T06:54:09.303Z,98227.08
2019-03-29T06:56:38.953Z,98227.84
2019-03-29T06:59:09.092Z,98229.76
2019-03-29T07:01:38.827Z,98232.58
2019-03-29T07:04:09.218Z,98236.09
2019-03-29T07:06:38.858Z,98239.48
2019-03-29T07:09:08.524Z,98241.91
2019-03-29T07:11:39.804Z,98239.22
2019-03-29T07:14:09.536Z,98243.22
2019-03-29T07:16:39.223Z,98248.78
2019-03-29T07:19:08.873Z,98242.84
2019-03-29T07:21:38.525Z,98248.13
2019-03-29T07:24:08.249Z,98242.86
2019-03-29T07:26:38.200Z,98246.05
2019-03-29T07:29:07.928Z,98237.86
2019-03-29T07:31:37.583Z,98244.77
2019-03-29T07:34:07.305Z,98242.14
2019-03-29T07:36:36.978Z,98245.31
2019-03-29T07:39:07.453Z,98236.77
2019-03-29T07:41:37.067Z,98231.61
2019-03-29T07:44:07.131Z,98250.50
2019-03-29T07:46:36.815Z,98250.50
2019-03-29T07:49:06.545Z,98243.72
2019-03-29T07:51:36.185Z,98246.67
2019-03-29T07:54:05.902Z,98236.72
2019-03-29T07:56:35.664Z,98242.84
2019-03-29T07:59:05.313Z,98233.09
2019-03-29T08:01:35.890Z,98237.39
2019-03-29T08:04:05.692Z,98237.39
2019-03-29T08:06:35.328Z,98227.31
2019-03-29T08:09:06.521Z,98229.65
2019-03-29T08:11:46.182Z,98233.47
2019-03-29T08:14:07.627Z,98240.16
2019-03-29T08:16:38.498Z,98237.23
2019-03-29T08:19:08.175Z,98234.36
2019-03-29T08:21:37.828Z,98245.25
2019-03-29T08:24:07.485Z,98241.48
2019-03-29T08:26:37.165Z,98241.05
2019-03-29T08:29:06.887Z,98238.53
2019-03-29T08:31:36.531Z,98240.37
2019-03-29T08:34:06.191Z,98238.38
2019-03-29T08:36:35.823Z,98241.24
2019-03-29T08:39:10.071Z,98236.91
2019-03-29T08:41:38.306Z,98225.05
2019-03-29T08:44:07.980Z,98235.45
2019-03-29T08:46:40.735Z,98230.77
2019-03-29T08:49:10.422Z,98236.88
2019-03-29T08:51:41.552Z,98234.02
2019-03-29T08:54:11.306Z,98238.52
2019-03-29T08:56:42.010Z,98225.03
2019-03-29T08:59:11.704Z,98222.73
2019-03-29T09:01:41.386Z,98221.34
2019-03-29T09:04:11.747Z,98221.49
2019-03-29T09:06:53.443Z,98228.45
2019-03-29T09:09:14.218Z,98227.58
2019-03-29T09:11:43.871Z,98224.95
2019-03-29T09:14:13.581Z,98226.72
2019-03-29T09:16:44.515Z,98225.19
2019-03-29T09:19:14.188Z,98223.98
2019-03-29T09:21:43.853Z,98210.98
2019-03-29T09:24:21.806Z,98219.52
2019-03-29T09:26:46.090Z,98207.93
2019-03-29T09:29:15.796Z,98214.66
2019-03-29T09:31:45.414Z,98204.75
2019-03-29T09:34:15.078Z,98200.71
2019-03-29T09:36:45.276Z,98195.36
2019-03-29T09:39:15.085Z,98195.98
2019-03-29T09:41:44.685Z,98197.20
2019-03-29T09:44:14.371Z,98195.13
2019-03-29T09:46:44.024Z,98188.44
2019-03-29T09:49:13.716Z,98194.27
2019-03-29T09:51:43.397Z,98189.31
2019-03-29T09:54:13.105Z,98184.72
2019-03-29T09:56:42.752Z,98185.38
2019-03-29T09:59:12.426Z,98180.56
2019-03-29T10:01:42.044Z,98184.87
2019-03-29T10:04:11.680Z,98177.58
2019-03-29T10:06:41.337Z,98167.25
2019-03-29T10:09:11.126Z,98164.06
2019-03-29T10:11:40.774Z,98164.97
2019-03-29T10:14:10.429Z,98165.89
2019-03-29T10:16:40.295Z,98164.79
2019-03-29T10:19:10.009Z,98155.90
2019-03-29T10:21:39.721Z,98164.78
2019-03-29T10:24:09.356Z,98157.67
2019-03-29T10:26:39.044Z,98155.83
2019-03-29T10:29:08.700Z,98149.52
2019-03-29T10:31:38.349Z,98147.80
2019-03-29T10:34:08.070Z,98145.45
2019-03-29T10:36:37.661Z,98149.52
2019-03-29T10:39:12.324Z,98148.95
2019-03-29T10:41:41.954Z,98144.75
2019-03-29T10:44:11.608Z,98139.02
2019-03-29T10:46:42.650Z,98138.14
2019-03-29T10:49:12.306Z,98127.80
2019-03-29T10:51:41.945Z,98124.27
2019-03-29T10:54:11.622Z,98119.36
2019-03-29T10:56:41.302Z,98131.45
2019-03-29T10:59:10.966Z,98125.94
2019-03-29T11:01:40.674Z,98120.53
2019-03-29T11:04:10.390Z,98121.88
2019-03-29T11:06:40.040Z,98106.28
2019-03-29T11:09:09.731Z,98118.80
2019-03-29T11:11:39.364Z,98122.86
2019-03-29T11:14:09.014Z,98125.09
2019-03-29T11:16:38.752Z,98120.27
2019-03-29T11:19:08.742Z,98109.88
2019-03-29T11:21:38.411Z,98106.88
2019-03-29T11:24:09.341Z,98109.88
2019-03-29T11:26:40.413Z,98112.25
2019-03-29T11:29:10.065Z,98109.00
2019-03-29T11:31:39.708Z,98094.77
2019-03-29T11:34:09.378Z,98089.74
2019-03-29T11:36:39.001Z,98086.69
2019-03-29T11:39:09.122Z,98080.87
2019-03-29T11:41:38.847Z,98094.13
2019-03-29T11:44:08.513Z,98081.81
2019-03-29T11:46:38.206Z,98086.61
2019-03-29T11:49:07.845Z,98081.92
2019-03-29T11:51:37.543Z,98071.54
2019-03-29T11:54:07.257Z,98066.84
2019-03-29T11:56:36.946Z,98065.66
2019-03-29T11:59:06.632Z,98063.20
2019-03-29T12:01:36.705Z,98065.77
2019-03-29T12:04:06.450Z,98062.33
2019-03-29T12:06:36.084Z,98055.83
2019-03-29T12:09:07.365Z,98062.19
2019-03-29T12:11:37.231Z,98057.36
2019-03-29T12:14:06.983Z,98047.72
2019-03-29T12:16:38.329Z,98051.72
2019-03-29T12:19:08.088Z,98050.77
2019-03-29T12:21:38.492Z,98045.99
2019-03-29T12:24:08.145Z,98042.98
2019-03-29T12:26:39.074Z,98033.58
2019-03-29T12:29:08.741Z,98031.56
2019-03-29T12:31:38.568Z,98030.56
2019-03-29T12:34:08.272Z,98032.80
2019-03-29T12:36:39.985Z,98022.83
2019-03-29T12:39:09.696Z,98021.81
2019-03-29T12:41:39.332Z,98016.59
2019-03-29T12:44:09.014Z,98014.68
2019-03-29T12:46:41.411Z,98012.72
2019-03-29T12:49:11.160Z,98019.47
2019-03-29T12:51:40.797Z,98017.96
2019-03-29T12:54:12.132Z,98003.31
2019-03-29T12:56:49.292Z,98008.86
2019-03-29T12:59:18.967Z,97997.59
2019-03-29T13:01:48.599Z,98002.94
2019-03-29T13:04:18.345Z,97996.00
2019-03-29T13:06:50.999Z,97993.38
2019-03-29T13:09:20.667Z,97990.80
2019-03-29T13:11:50.345Z,97978.80
2019-03-29T13:14:20.070Z,97981.27
2019-03-29T13:16:49.693Z,97977.44
2019-03-29T13:19:19.330Z,97971.13
2019-03-29T13:21:49.016Z,97962.23
2019-03-29T13:24:18.720Z,97976.80
2019-03-29T13:29:20.212Z,97961.48
2019-03-29T13:31:50.604Z,97957.47
2019-03-29T13:34:20.242Z,97949.70
2019-03-29T13:36:50.159Z,97943.22
2019-03-29T13:39:19.800Z,97940.38
2019-03-29T13:41:49.446Z,97941.23
2019-03-29T13:44:24.406Z,97925.80
2019-03-29T13:46:51.748Z,97928.79
2019-03-29T13:49:21.390Z,97921.61
2019-03-29T13:51:51.155Z,97915.09
2019-03-29T13:54:20.811Z,97915.05
2019-03-29T13:56:50.547Z,97918.94
2019-03-29T13:59:20.191Z,97924.38
2019-03-29T14:01:49.846Z,97919.23
2019-03-29T14:04:19.529Z,97917.37
2019-03-29T14:06:49.325Z,97904.22
2019-03-29T14:09:19.231Z,97898.33
2019-03-29T14:11:49.004Z,97907.59
2019-03-29T14:14:19.637Z,97899.12
2019-03-29T14:16:50.260Z,97901.39
2019-03-29T14:19:21.118Z,97889.41
2019-03-29T14:21:50.774Z,97891.85
2019-03-29T14:24:20.482Z,97886.12
2019-03-29T14:27:03.813Z,97879.40
2019-03-29T14:29:33.436Z,97879.17
2019-03-29T14:32:03.085Z,97887.48
2019-03-29T14:34:32.744Z,97876.58
2019-03-29T14:37:02.395Z,97873.90
2019-03-29T14:39:32.064Z,97870.16
2019-03-29T14:42:01.716Z,97863.84
2019-03-29T14:44:31.345Z,97865.03
2019-03-29T14:47:00.995Z,97862.60
2019-03-29T14:49:30.626Z,97859.09
2019-03-29T14:52:00.270Z,97862.44
2019-03-29T14:54:29.931Z,97866.56
2019-03-29T14:56:59.576Z,97852.56
2019-03-29T14:59:29.201Z,97854.29
2019-03-29T15:01:58.854Z,97846.72
2019-03-29T15:04:28.536Z,97846.71
2019-03-29T15:06:58.193Z,97844.48
2019-03-29T15:09:27.817Z,97839.56
2019-03-29T15:11:57.666Z,97841.14
2019-03-29T15:14:27.293Z,97842.02
2019-03-29T15:16:57.002Z,97827.23
2019-03-29T15:19:26.677Z,97824.86
2019-03-29T15:21:56.517Z,97826.09
2019-03-29T15:24:26.199Z,97816.30
2019-03-29T15:26:55.836Z,97815.00
2019-03-29T15:29:25.486Z,97820.98
2019-03-29T15:31:55.122Z,97827.72
2019-03-29T15:34:24.775Z,97821.09
2019-03-29T15:36:54.422Z,97819.48
2019-03-29T15:39:24.330Z,97821.01
2019-03-29T15:41:53.984Z,97819.45
2019-03-29T15:44:23.625Z,97814.86
2019-03-29T15:46:53.258Z,97808.30
2019-03-29T15:49:22.907Z,97810.42
2019-03-29T15:51:52.722Z,97811.67
2019-03-29T15:54:22.446Z,97817.50
2019-03-29T15:56:52.098Z,97808.20
2019-03-29T15:59:21.751Z,97809.14
2019-03-29T16:01:51.377Z,97813.78
2019-03-29T16:04:21.022Z,97806.92
2019-03-29T16:06:50.658Z,97808.46
2019-03-29T16:09:20.346Z,97807.95
2019-03-29T16:11:49.985Z,97800.58
2019-03-29T16:14:19.718Z,97798.20
2019-03-29T16:16:49.386Z,97803.47
2019-03-29T16:19:19.033Z,97800.67
2019-03-29T16:21:48.699Z,97793.58
2019-03-29T16:24:18.410Z,97793.23
2019-03-29T16:26:48.034Z,97795.86
2019-03-29T16:29:17.776Z,97794.27
2019-03-29T16:31:47.377Z,97797.88
2019-03-29T16:34:17.034Z,97791.55
2019-03-29T16:36:46.659Z,97792.22
2019-03-29T16:39:16.319Z,97794.43
2019-03-29T16:41:45.956Z,97791.69
2019-03-29T16:44:15.622Z,97796.30
2019-03-29T16:46:45.374Z,97796.30
2019-03-29T16:49:15.027Z,97787.36
2019-03-29T16:51:44.683Z,97787.36
2019-03-29T16:54:14.369Z,97785.65
2019-03-29T16:56:44.013Z,97784.59
2019-03-29T16:59:13.665Z,97796.44
2019-03-29T17:01:43.365Z,97788.06
2019-03-29T17:04:13.032Z,97792.05
2019-03-29T17:06:42.657Z,97790.89
2019-03-29T17:09:12.293Z,97787.19
2019-03-29T17:11:41.975Z,97787.42
2019-03-29T17:14:11.625Z,97785.45
2019-03-29T17:16:41.282Z,97782.13
2019-03-29T17:19:10.973Z,97779.09
2019-03-29T17:21:40.591Z,97784.22
2019-03-29T17:24:10.231Z,97787.12
2019-03-29T17:26:39.937Z,97782.69
2019-03-29T17:29:09.565Z,97777.97
2019-03-29T17:31:39.236Z,97777.86
2019-03-29T17:34:08.887Z,97788.41
2019-03-29T17:36:38.562Z,97786.04
2019-03-29T17:39:08.577Z,97796.88
2019-03-29T17:41:38.267Z,97799.67
2019-03-29T17:44:07.903Z,97799.81
2019-03-29T17:46:37.586Z,97799.63
2019-03-29T17:49:07.252Z,97800.73
2019-03-29T17:51:36.937Z,97800.66
2019-03-29T17:54:06.613Z,97799.16
2019-03-29T17:56:36.263Z,97801.45
2019-03-29T17:59:05.894Z,97802.20
2019-03-29T18:01:39.054Z,97802.23
2019-03-29T18:04:07.668Z,97801.03
2019-03-29T18:06:38.497Z,97799.86
2019-03-29T18:09:09.836Z,97804.49
2019-03-29T18:11:40.403Z,97803.36
2019-03-29T18:14:13.226Z,97804.88
2019-03-29T18:16:46.608Z,97799.86
2019-03-29T18:19:17.440Z,97803.54
2019-03-29T18:21:47.365Z,97813.11
2019-03-29T18:24:17.428Z,97811.36
2019-03-29T18:26:48.928Z,97811.36
2019-03-29T18:29:19.506Z,97809.23
2019-03-29T18:31:50.080Z,97812.63
2019-03-29T18:34:20.206Z,97810.63
2019-03-29T18:36:54.704Z,97813.00
2019-03-29T18:39:24.655Z,97808.08
2019-03-29T18:41:54.953Z,97814.70
2019-03-29T18:44:25.745Z,97807.05
2019-03-29T18:46:59.245Z,97813.44
2019-03-29T18:49:30.163Z,97812.63
2019-03-29T18:52:00.899Z,97814.21
2019-03-29T18:54:31.364Z,97813.59
2019-03-29T18:57:02.640Z,97816.09
2019-03-29T18:59:38.517Z,97819.05
2019-03-29T19:02:08.165Z,97812.83
2019-03-29T19:04:37.777Z,97811.22
2019-03-29T19:07:09.076Z,97811.25
2019-03-29T19:09:38.705Z,97803.55
2019-03-29T19:12:08.368Z,97801.55
2019-03-29T19:14:41.473Z,97803.95
2019-03-29T19:17:10.883Z,97800.80
2019-03-29T19:19:40.524Z,97801.73
2019-03-29T19:22:10.179Z,97798.70
2019-03-29T19:24:39.816Z,97796.06
2019-03-29T19:27:09.482Z,97800.05
2019-03-29T19:29:39.136Z,97796.20
2019-03-29T19:32:08.763Z,97793.16
2019-03-29T19:34:38.405Z,97790.73
2019-03-29T19:37:08.060Z,97791.45
2019-03-29T19:39:37.689Z,97786.44
2019-03-29T19:42:07.327Z,97787.02
2019-03-29T19:44:37.001Z,97784.20
2019-03-29T19:47:13.241Z,97781.80
2019-03-29T19:49:38.042Z,97785.59
2019-03-29T19:52:07.673Z,97781.32
2019-03-29T19:54:37.370Z,97783.66
2019-03-29T19:57:08.058Z,97775.59
2019-03-29T19:59:37.714Z,97779.73
2019-03-29T20:02:07.342Z,97770.94
2019-03-29T20:04:36.981Z,97770.31
2019-03-29T20:07:06.612Z,97769.43
2019-03-29T20:09:36.285Z,97769.43
2019-03-29T20:12:05.941Z,97766.73
2019-03-29T20:14:35.586Z,97771.01
2019-03-29T20:17:05.204Z,97768.59
2019-03-29T20:19:34.942Z,97768.84
2019-03-29T20:22:04.619Z,97765.36
2019-03-29T20:24:34.304Z,97752.23
2019-03-29T20:27:03.896Z,97762.63
2019-03-29T20:29:35.290Z,97758.84
2019-03-29T20:32:04.919Z,97763.98
2019-03-29T20:34:34.889Z,97758.88
2019-03-29T20:37:08.865Z,97755.88
2019-03-29T20:39:37.660Z,97746.16
2019-03-29T20:42:17.748Z,97742.67
2019-03-29T20:44:47.406Z,97746.15
2019-03-29T20:47:17.044Z,97741.33
2019-03-29T20:49:46.721Z,97740.52
2019-03-29T20:52:16.381Z,97747.79
2019-03-29T20:54:46.079Z,97748.10
2019-03-29T20:57:15.708Z,97748.93
2019-03-29T20:59:45.364Z,97741.25
2019-03-29T21:02:14.982Z,97744.70
2019-03-29T21:04:44.612Z,97745.75
2019-03-29T21:07:14.335Z,97745.75
2019-03-29T21:09:43.925Z,97744.22
2019-03-29T21:12:13.564Z,97732.86
2019-03-29T21:14:43.185Z,97738.98
2019-03-29T21:17:12.842Z,97733.35
2019-03-29T21:19:42.580Z,97733.36
2019-03-29T21:22:12.240Z,97740.94
2019-03-29T21:24:41.925Z,97741.27
2019-03-29T21:27:11.609Z,97741.25
2019-03-29T21:29:41.233Z,97736.75
2019-03-29T21:32:10.922Z,97737.14
2019-03-29T21:34:40.548Z,97733.98
2019-03-29T21:37:10.195Z,97729.77
2019-03-29T21:39:39.812Z,97731.53
2019-03-29T21:42:09.485Z,97724.95
2019-03-29T21:44:39.120Z,97721.17
2019-03-29T21:47:09.685Z,97721.17
2019-03-29T21:49:39.339Z,97718.00
2019-03-29T21:52:08.983Z,97713.52
2019-03-29T21:54:38.816Z,97713.52
2019-03-29T21:57:08.822Z,97711.86
2019-03-29T21:59:38.466Z,97705.31
2019-03-29T22:02:08.105Z,97704.90
2019-03-29T22:04:37.723Z,97702.14
2019-03-29T22:07:07.357Z,97700.59
2019-03-29T22:09:37.519Z,97696.60
2019-03-29T22:12:07.273Z,97694.47
2019-03-29T22:14:36.966Z,97689.87
2019-03-29T22:17:06.625Z,97689.20
2019-03-29T22:19:36.312Z,97688.42
2019-03-29T22:22:05.956Z,97692.09
2019-03-29T22:24:35.614Z,97690.17
2019-03-29T22:27:05.369Z,97685.90
2019-03-29T22:29:35.015Z,97690.36
2019-03-29T22:32:04.661Z,97681.89
2019-03-29T22:34:34.296Z,97681.03
2019-03-29T22:37:03.951Z,97685.21
2019-03-29T22:39:33.583Z,97685.88
2019-03-29T22:42:03.242Z,97679.84
2019-03-29T22:44:32.877Z,97678.25
2019-03-29T22:47:02.497Z,97680.32
2019-03-29T22:49:32.457Z,97679.91
2019-03-29T22:52:02.120Z,97682.20
2019-03-29T22:54:32.626Z,97681.98
2019-03-29T22:57:05.144Z,97676.14
2019-03-29T22:59:34.878Z,97676.86
2019-03-29T23:02:06.176Z,97670.70
2019-03-29T23:04:35.834Z,97674.29
2019-03-29T23:07:05.569Z,97668.86
2019-03-29T23:09:35.319Z,97673.03
2019-03-29T23:12:04.995Z,97677.53
2019-03-29T23:14:34.641Z,97665.57
2019-03-29T23:17:04.263Z,97667.27
2019-03-29T23:19:33.931Z,97664.08
2019-03-29T23:22:03.612Z,97666.23
2019-03-29T23:24:33.257Z,97658.93
2019-03-29T23:27:02.880Z,97656.70
2019-03-29T23:29:32.560Z,97659.88
2019-03-29T23:32:02.185Z,97655.91
2019-03-29T23:34:31.837Z,97654.13
2019-03-29T23:37:01.639Z,97647.36
2019-03-29T23:39:31.299Z,97645.74
2019-03-29T23:42:01.054Z,97645.94
2019-03-29T23:44:30.728Z,97641.83
2019-03-29T23:47:00.364Z,97637.17
2019-03-29T23:49:30.014Z,97632.66
2019-03-29T23:51:59.654Z,97640.19
2019-03-29T23:54:29.338Z,97637.84
2019-03-29T23:56:58.976Z,97634.80
2019-03-29T23:59:28.640Z,97631.01
